Time;durP1;ratioP1;P1;durP2;ratioP2;P2;SDS_P1;SDS_P2;PMS_P1;PMS_P2;Temp;Humidity;BMP_temperature;BMP_pressure;BME280_temperature;BME280_humidity;BME280_pressure;Samples;Min_cycle;Max_cycle;Signal;HPM_P1;HPM_P2
2022/06/14 00:01:36;;;;;;;;;;;;;;;31.58;21.20;101481.56;4420463;32;20103;-69
2022/06/14 00:04:02;;;;;;;;;;;;;;;31.62;21.19;101470.34;4418630;32;20194;-69
2022/06/14 00:06:29;;;;;;;;;;;;;;;31.56;21.18;101478.44;4421162;32;20037;-69
2022/06/14 00:08:56;;;;;;;;;;;;;;;31.64;21.18;101480.06;4421108;32;19994;-69
2022/06/14 00:11:24;;;;;;;;;;;;;;;31.53;21.31;101479.59;4420606;32;19957;-69
2022/06/14 00:13:51;;;;;;;;;;;;;;;31.46;21.28;101472.34;4408032;32;20538;-69
2022/06/14 00:16:17;;;;;;;;;;;;;;;31.45;21.09;101464.97;4421498;32;20576;-69
2022/06/14 00:18:43;;;;;;;;;;;;;;;31.74;20.89;101466.56;4417672;32;20413;-69
2022/06/14 00:21:09;;;;;;;;;;;;;;;31.73;20.82;101465.03;4422655;32;19957;-69
2022/06/14 00:23:34;;;;;;;;;;;;;;;31.89;20.63;101469.62;4421210;32;20391;-69
2022/06/14 00:26:01;;;;;;;;;;;;;;;31.65;20.61;101472.91;4420060;32;19989;-69
2022/06/14 00:28:27;;;;;;;;;;;;;;;31.59;20.71;101469.34;4406790;32;20351;-69
2022/06/14 00:30:54;;;;;;;;;;;;;;;31.59;20.73;101465.66;4422041;32;20010;-69
2022/06/14 00:33:20;;;;;;;;;;;;;;;31.71;20.73;101476.44;4422081;32;19992;-69
2022/06/14 00:35:45;;;;;;;;;;;;;;;31.47;20.83;101473.13;4420599;32;19993;-69
2022/06/14 00:38:12;;;;;;;;;;;;;;;31.45;20.81;101472.91;4421647;32;19989;-69
2022/06/14 00:40:37;;;;;;;;;;;;;;;31.76;20.53;101468.91;4421364;32;19963;-69
2022/06/14 00:43:05;;;;;;;;;;;;;;;31.80;20.46;101463.50;4421971;32;20001;-69
2022/06/14 00:48:08;;;;;;;;;;;;;;;32.05;20.90;101468.38;3951839;32;15745551;-69
2022/06/14 00:50:39;;;;;;;;;;;;;;;32.05;20.90;101468.38;4428173;32;20006;-69
2022/06/14 00:53:07;;;;;;;;;;;;;;;31.54;21.23;101464.44;4428835;32;20457;-69
2022/06/14 00:55:36;;;;;;;;;;;;;;;31.73;21.09;101464.22;4427425;32;20342;-69
2022/06/14 00:58:06;;;;;;;;;;;;;;;31.76;21.02;101457.28;4429920;32;20350;-69
2022/06/14 01:00:34;;;;;;;;;;;;;;;31.68;21.16;101450.59;4430103;32;19960;-69
2022/06/14 01:03:03;;;;;;;;;;;;;;;31.64;21.14;101459.69;4429511;32;19957;-69
2022/06/14 01:08:06;;;;;;;;;;;;;;;31.90;21.06;101444.22;3950671;32;15729530;-69
2022/06/14 01:10:33;;;;;;;;;;;;;;;31.90;21.06;101444.22;4426571;32;20078;-69
2022/06/14 01:13:00;;;;;;;;;;;;;;;31.46;21.27;101451.97;4428133;32;20011;-69
2022/06/14 01:15:28;;;;;;;;;;;;;;;31.37;21.27;101449.56;4427635;32;19977;-69
2022/06/14 01:18:00;;;;;;;;;;;;;;;31.45;21.46;101452.53;4427678;32;20037;-69
2022/06/14 01:20:26;;;;;;;;;;;;;;;31.29;21.63;101447.94;4424403;32;20020;-68
2022/06/14 01:22:53;;;;;;;;;;;;;;;31.52;21.34;101440.97;4426991;32;19962;-69
2022/06/14 01:25:19;;;;;;;;;;;;;;;31.40;21.34;101430.97;4429562;32;20029;-69
2022/06/14 01:27:45;;;;;;;;;;;;;;;31.40;21.48;101427.28;4427391;32;20766;-69
2022/06/14 01:30:14;;;;;;;;;;;;;;;31.48;21.31;101425.22;4428530;32;20012;-68
2022/06/14 01:32:44;;;;;;;;;;;;;;;31.46;21.34;101433.72;4426441;32;20013;-68
2022/06/14 01:42:08;;;;;;;;;;;;;;;31.46;21.39;101431.62;4426521;32;20026;-68
2022/06/14 01:47:40;;;;;;;;;;;;;;;31.93;20.14;101429.28;3950305;32;15722693;-69
2022/06/14 01:58:36;;;;;;;;;;;;;;;31.89;19.97;101440.50;3951505;32;15723437;-68
2022/06/14 02:06:34;;;;;;;;;;;;;;;31.69;21.02;101434.72;4433737;32;19961;-69
2022/06/14 02:09:09;;;;;;;;;;;;;;;31.26;21.72;101429.44;4434035;32;20034;-69
2022/06/14 02:11:35;;;;;;;;;;;;;;;31.17;21.83;101424.13;4435566;32;20388;-69
2022/06/14 02:17:00;;;;;;;;;;;;;;;31.84;21.34;101432.72;3950818;32;15722652;-69
2022/06/14 02:19:46;;;;;;;;;;;;;;;31.84;21.34;101432.72;4427345;32;19995;-67
2022/06/14 02:22:18;;;;;;;;;;;;;;;31.50;21.60;101417.47;4428169;32;20029;-69
2022/06/14 02:24:49;;;;;;;;;;;;;;;31.20;21.88;101420.09;4430084;32;19997;-69
2022/06/14 02:27:19;;;;;;;;;;;;;;;30.77;22.25;101423.53;4430674;32;19968;-69
2022/06/14 02:29:48;;;;;;;;;;;;;;;31.01;22.09;101416.59;4430789;32;20268;-69
2022/06/14 02:32:19;;;;;;;;;;;;;;;30.99;22.15;101406.91;4428734;32;19997;-69
2022/06/14 02:34:49;;;;;;;;;;;;;;;31.23;21.93;101410.22;4429021;32;20335;-69
2022/06/14 02:37:18;;;;;;;;;;;;;;;31.13;22.01;101409.16;4430400;32;19965;-69
2022/06/14 02:39:52;;;;;;;;;;;;;;;30.99;22.31;101418.53;4431527;32;19993;-69
2022/06/14 02:42:21;;;;;;;;;;;;;;;30.83;22.35;101414.66;4429760;32;19996;-69
2022/06/14 02:44:52;;;;;;;;;;;;;;;31.08;22.29;101406.41;4431092;32;19961;-69
2022/06/14 02:47:27;;;;;;;;;;;;;;;31.00;22.46;101415.06;4428803;32;19980;-69
2022/06/14 02:49:55;;;;;;;;;;;;;;;31.21;22.25;101412.94;4428072;32;20004;-69
2022/06/14 02:52:29;;;;;;;;;;;;;;;31.28;22.18;101412.25;4429178;32;20352;-68
2022/06/14 02:54:59;;;;;;;;;;;;;;;31.14;22.30;101404.16;4430384;32;20044;-68
2022/06/14 02:57:37;;;;;;;;;;;;;;;31.13;22.44;101400.44;4413202;32;20000;-68
2022/06/14 03:02:42;;;;;;;;;;;;;;;31.53;22.05;101395.22;3957752;32;15722326;-68
2022/06/14 03:05:13;;;;;;;;;;;;;;;31.53;22.05;101395.22;4432796;32;19976;-69
2022/06/14 03:07:44;;;;;;;;;;;;;;;31.06;22.55;101388.75;4430766;32;19961;-69
2022/06/14 03:10:33;;;;;;;;;;;;;;;31.26;22.32;101380.00;4433349;32;19957;-69
2022/06/14 03:13:18;;;;;;;;;;;;;;;31.19;22.17;101377.81;4433133;32;20326;-69
2022/06/14 03:15:50;;;;;;;;;;;;;;;31.00;21.69;101382.28;4434019;32;20045;-69
2022/06/14 03:21:10;;;;;;;;;;;;;;;31.71;21.82;101379.59;3951546;32;15725176;-69
2022/06/14 03:28:55;;;;;;;;;;;;;;;31.73;21.66;101371.88;3951366;32;15722555;-69
2022/06/14 03:31:27;;;;;;;;;;;;;;;31.73;21.66;101371.88;4430908;32;20331;-69
2022/06/14 03:34:13;;;;;;;;;;;;;;;31.34;21.23;101375.06;4425951;32;20001;-69
2022/06/14 03:36:38;;;;;;;;;;;;;;;31.03;21.69;101372.44;4428384;32;20406;-69
2022/06/14 03:39:08;;;;;;;;;;;;;;;31.09;21.54;101368.03;4430511;32;19952;-69
2022/06/14 03:41:35;;;;;;;;;;;;;;;30.91;21.65;101376.97;4430022;32;20029;-69
2022/06/14 03:44:03;;;;;;;;;;;;;;;31.25;21.51;101360.22;4427923;32;19961;-69
2022/06/14 03:49:09;;;;;;;;;;;;;;;31.52;21.51;101367.44;3951765;32;15722351;-68
2022/06/14 03:51:51;;;;;;;;;;;;;;;31.52;21.51;101367.44;4433435;32;21038;-68
2022/06/14 03:57:14;;;;;;;;;;;;;;;31.83;21.32;101372.16;3952115;32;15744465;-68
2022/06/14 04:05:04;;;;;;;;;;;;;;;31.34;21.84;101369.25;3953209;32;15722530;-69
2022/06/14 04:10:16;;;;;;;;;;;;;;;31.63;21.60;101361.31;3957739;32;15722548;-69
2022/06/14 04:13:02;;;;;;;;;;;;;;;31.63;21.60;101361.31;4436827;32;20045;-69
2022/06/14 04:15:39;;;;;;;;;;;;;;;31.06;22.17;101363.38;4436179;32;19997;-69
2022/06/14 04:21:02;;;;;;;;;;;;;;;31.57;21.91;101364.38;3951612;32;15721446;-69
2022/06/14 04:26:08;;;;;;;;;;;;;;;31.73;21.79;101368.19;3953671;32;15723294;-69
2022/06/14 04:28:53;;;;;;;;;;;;;;;31.73;21.79;101368.19;4430429;32;19961;-69
2022/06/14 04:31:38;;;;;;;;;;;;;;;31.04;22.39;101368.94;4432549;32;20500;-69
2022/06/14 04:37:01;;;;;;;;;;;;;;;31.67;22.13;101368.34;3953290;32;15731639;-68
2022/06/14 04:42:14;;;;;;;;;;;;;;;31.77;21.94;101363.56;3954266;32;15724283;-68
2022/06/14 04:44:46;;;;;;;;;;;;;;;31.77;21.94;101363.56;4435326;32;19997;-69
2022/06/14 04:47:16;;;;;;;;;;;;;;;31.25;22.24;101361.00;4433958;32;19967;-69
2022/06/14 04:52:20;;;;;;;;;;;;;;;31.99;21.82;101365.03;3951901;32;15721558;-68
2022/06/14 04:54:51;;;;;;;;;;;;;;;31.99;21.82;101365.03;4429416;32;19990;-68
2022/06/14 04:57:24;;;;;;;;;;;;;;;31.71;21.99;101360.00;4430471;32;20008;-68
2022/06/14 05:02:45;;;;;;;;;;;;;;;32.19;21.48;101359.16;3953937;32;15724588;-69
2022/06/14 05:05:14;;;;;;;;;;;;;;;32.19;21.48;101359.16;4429424;32;19993;-69
2022/06/14 05:07:43;;;;;;;;;;;;;;;31.51;21.99;101360.88;4428418;32;19993;-69
2022/06/14 05:10:13;;;;;;;;;;;;;;;31.82;21.54;101361.88;4430343;32;20056;-69
2022/06/14 05:12:58;;;;;;;;;;;;;;;31.50;21.84;101353.47;4427540;32;20609;-69
2022/06/14 05:18:14;;;;;;;;;;;;;;;32.20;21.52;101359.91;3950244;32;15722647;-68
2022/06/14 05:20:44;;;;;;;;;;;;;;;32.20;21.52;101359.91;4428214;32;20025;-68
2022/06/14 05:23:15;;;;;;;;;;;;;;;31.51;22.34;101363.00;4430513;32;19957;-68
2022/06/14 05:25:47;;;;;;;;;;;;;;;31.34;22.63;101365.56;4429261;32;19989;-68
2022/06/14 05:28:16;;;;;;;;;;;;;;;31.50;22.44;101365.09;4428591;32;20056;-68
2022/06/14 05:33:27;;;;;;;;;;;;;;;32.07;22.02;101362.97;3952701;32;15727551;-68
2022/06/14 05:35:58;;;;;;;;;;;;;;;32.07;22.02;101362.97;4431239;32;20005;-68
2022/06/14 05:38:33;;;;;;;;;;;;;;;32.14;21.90;101351.34;4431539;32;19972;-68
2022/06/14 05:41:02;;;;;;;;;;;;;;;32.25;21.78;101365.59;4431386;32;20001;-69
2022/06/14 05:43:33;;;;;;;;;;;;;;;32.22;21.62;101360.13;4430302;32;21143;-68
2022/06/14 05:46:03;;;;;;;;;;;;;;;32.37;21.34;101363.13;4429136;32;20170;-68
2022/06/14 05:48:30;;;;;;;;;;;;;;;32.46;20.92;101357.50;4427895;32;20380;-68
2022/06/14 05:50:58;;;;;;;;;;;;;;;32.60;20.87;101358.94;4425115;32;19997;-68
2022/06/14 05:53:43;;;;;;;;;;;;;;;32.53;20.87;101359.69;4427893;32;20015;-68
2022/06/14 05:56:18;;;;;;;;;;;;;;;32.77;20.70;101366.34;4431936;32;19972;-68
2022/06/14 05:58:49;;;;;;;;;;;;;;;32.62;20.78;101364.19;4431661;32;20380;-68
2022/06/14 06:01:18;;;;;;;;;;;;;;;32.64;20.83;101361.44;4429474;32;19965;-68
2022/06/14 06:06:25;;;;;;;;;;;;;;;33.24;20.33;101354.94;3953178;32;15723340;-69
2022/06/14 06:17:12;;;;;;;;;;;;;;;33.93;19.69;101368.94;3951200;32;15723540;-69
2022/06/14 06:19:47;;;;;;;;;;;;;;;33.93;19.69;101368.94;4426434;32;19999;-69
2022/06/14 06:22:18;;;;;;;;;;;;;;;33.68;19.89;101376.75;4416097;32;20010;-69
2022/06/14 06:25:03;;;;;;;;;;;;;;;33.88;19.74;101370.69;4431373;32;19965;-69
2022/06/14 06:27:33;;;;;;;;;;;;;;;33.41;20.24;101376.34;4428329;32;20042;-69
2022/06/14 06:30:04;;;;;;;;;;;;;;;33.64;20.01;101373.44;4426779;32;20393;-69
2022/06/14 06:32:31;;;;;;;;;;;;;;;33.65;19.86;101367.00;4428404;32;20627;-69
2022/06/14 06:34:58;;;;;;;;;;;;;;;34.09;19.42;101379.97;4410715;32;19996;-69
2022/06/14 06:45:17;;;;;;;;;;;;;;;34.50;18.24;101377.88;3941397;32;15729510;-69
2022/06/14 06:53:07;;;;;;;;;;;;;;;34.77;18.11;101381.81;3952745;31;15714065;-69
2022/06/14 06:55:52;;;;;;;;;;;;;;;34.77;18.11;101381.81;4423399;32;20015;-69
2022/06/14 07:00:56;;;;;;;;;;;;;;;34.86;17.46;101384.91;3946814;32;15726519;-69
2022/06/14 07:03:39;;;;;;;;;;;;;;;34.86;17.46;101384.91;4418987;32;20486;-70
2022/06/14 07:06:06;;;;;;;;;;;;;;;34.61;17.57;101383.28;4420200;32;20005;-68
2022/06/14 07:11:17;;;;;;;;;;;;;;;34.81;17.28;101377.09;3947410;31;15733302;-68
2022/06/14 07:16:38;;;;;;;;;;;;;;;35.15;17.04;101388.22;3946983;32;15724395;-70
2022/06/14 07:21:58;;;;;;;;;;;;;;;35.37;16.74;101384.38;3940667;32;15724329;-68
2022/06/14 07:24:28;;;;;;;;;;;;;;;35.37;16.74;101384.38;4411324;32;19962;-69
2022/06/14 07:26:55;;;;;;;;;;;;;;;34.96;16.70;101387.94;4422424;32;20031;-68
2022/06/14 07:34:36;;;;;;;;;;;;;;;37.09;15.24;101377.81;3942445;32;15722563;-70
2022/06/14 07:37:22;;;;;;;;;;;;;;;37.09;15.24;101377.81;4412492;32;20082;-70
2022/06/14 07:40:08;;;;;;;;;;;;;;;36.55;15.55;101376.25;4414635;32;20005;-70
2022/06/14 07:42:53;;;;;;;;;;;;;;;36.58;15.65;101381.69;4415949;32;19996;-70
2022/06/14 07:47:58;;;;;;;;;;;;;;;36.98;15.31;101376.22;3936767;32;15721670;-71
2022/06/14 07:58:25;;;;;;;;;;;;;;;37.10;15.09;101365.47;3943602;32;15723535;-69
2022/06/14 08:01:09;;;;;;;;;;;;;;;37.10;15.09;101365.47;4419051;32;20437;-70
2022/06/14 08:06:13;;;;;;;;;;;;;;;36.49;15.94;101358.94;3941078;32;15750546;-69
2022/06/14 08:08:41;;;;;;;;;;;;;;;36.49;15.94;101358.94;4427701;32;19957;-68
2022/06/14 08:11:12;;;;;;;;;;;;;;;35.57;16.51;101360.56;4429807;32;20009;-69
2022/06/14 08:13:43;;;;;;;;;;;;;;;35.58;16.57;101356.25;4421751;32;20011;-69
2022/06/14 08:16:11;;;;;;;;;;;;;;;35.27;16.87;101360.78;4428024;32;19967;-68
2022/06/14 08:21:23;;;;;;;;;;;;;;;35.41;17.35;101352.50;3942217;32;15721365;-69
2022/06/14 08:24:09;;;;;;;;;;;;;;;35.41;17.35;101352.50;4415224;32;20018;-69
2022/06/14 08:26:37;;;;;;;;;;;;;;;35.11;17.49;101347.66;4417876;32;20012;-69
2022/06/14 08:31:57;;;;;;;;;;;;;;;35.49;16.99;101339.34;3961128;32;15723614;-67
2022/06/14 08:34:25;;;;;;;;;;;;;;;35.49;16.99;101339.34;4440573;32;20310;-69
2022/06/14 08:36:56;;;;;;;;;;;;;;;35.26;17.15;101332.13;4440937;32;19977;-68
2022/06/14 08:39:27;;;;;;;;;;;;;;;34.97;16.83;101334.69;4444937;32;20016;-68
2022/06/14 08:42:05;;;;;;;;;;;;;;;35.22;16.34;101335.47;4443601;32;19972;-68
2022/06/14 08:44:42;;;;;;;;;;;;;;;35.56;16.30;101326.03;4443544;32;19984;-69
2022/06/14 08:49:53;;;;;;;;;;;;;;;37.73;15.03;101327.97;3946253;32;15723307;-71
2022/06/14 09:05:56;;;;;;;;;;;;;;;37.44;15.54;101321.25;3946409;32;15722460;-69
2022/06/14 09:16:54;;;;;;;;;;;;;;;37.08;15.77;101306.59;3945381;32;15723384;-70
2022/06/14 09:19:40;;;;;;;;;;;;;;;37.08;15.77;101306.59;4423672;32;20291;-69
2022/06/14 09:24:50;;;;;;;;;;;;;;;37.32;15.69;101296.03;3944214;32;15723986;-69
2022/06/14 09:27:30;;;;;;;;;;;;;;;37.32;15.69;101296.03;4422385;32;20026;-69
2022/06/14 09:30:15;;;;;;;;;;;;;;;37.01;15.72;101304.56;4425748;32;19996;-69
2022/06/14 09:40:52;;;;;;;;;;;;;;;38.46;14.34;101301.91;3945748;32;15724659;-70
2022/06/14 09:46:21;;;;;;;;;;;;;;;39.09;13.95;101292.59;3947833;32;15722403;-70
2022/06/14 09:48:58;;;;;;;;;;;;;;;39.09;13.95;101292.59;4416759;32;19985;-69
2022/06/14 09:54:17;;;;;;;;;;;;;;;38.39;14.69;101296.22;3955955;31;15721610;-70
2022/06/14 10:10:25;;;;;;;;;;;;;;;38.87;14.63;101288.78;3946502;32;15722565;-69
2022/06/14 10:15:41;;;;;;;;;;;;;;;38.55;14.71;101294.50;3945046;32;15732555;-69
2022/06/14 10:20:52;;;;;;;;;;;;;;;40.73;13.25;101306.12;3954221;32;15726537;-70
2022/06/14 10:29:05;;;;;;;;;;;;;;;41.43;12.17;101301.78;4419157;32;19980;-69
2022/06/14 10:31:50;;;;;;;;;;;;;;;40.82;12.80;101300.12;4417695;32;19962;-68
2022/06/14 10:34:21;;;;;;;;;;;;;;;41.42;12.46;101303.97;4413442;32;19996;-68
2022/06/14 10:37:06;;;;;;;;;;;;;;;40.94;12.58;101309.75;4416209;32;19992;-69
2022/06/14 10:39:40;;;;;;;;;;;;;;;40.66;12.60;101298.31;4415729;32;20048;-69
2022/06/14 10:44:49;;;;;;;;;;;;;;;40.60;13.04;101298.66;3964035;31;15716646;-70
2022/06/14 10:47:24;;;;;;;;;;;;;;;40.60;13.04;101298.66;4445722;32;20026;-69
2022/06/14 10:50:10;;;;;;;;;;;;;;;40.80;12.76;101293.31;4442300;32;20076;-69
2022/06/14 10:52:44;;;;;;;;;;;;;;;41.53;12.26;101289.84;4440433;32;19988;-67
2022/06/14 10:58:02;;;;;;;;;;;;;;;43.34;11.03;101287.09;3940222;32;15722471;-69
2022/06/14 11:06:08;;;;;;;;;;;;;;;43.97;10.80;101274.19;3945055;32;15724237;-69
2022/06/14 11:16:39;;;;;;;;;;;;;;;43.68;10.90;101274.13;3944908;32;15722495;-67
2022/06/14 11:24:28;;;;;;;;;;;;;;;42.34;11.61;101267.44;3946159;32;15723313;-69
2022/06/14 11:29:48;;;;;;;;;;;;;;;41.92;11.84;101261.97;3945804;32;15724442;-69
2022/06/14 11:37:47;;;;;;;;;;;;;;;42.63;11.53;101264.63;3940092;32;15723444;-69
2022/06/14 11:40:30;;;;;;;;;;;;;;;42.74;11.24;101257.13;4412866;32;20001;-68
2022/06/14 11:43:15;;;;;;;;;;;;;;;43.89;10.45;101255.22;4411462;32;20015;-68
2022/06/14 11:45:48;;;;;;;;;;;;;;;44.49;10.32;101259.00;4410628;32;20011;-70
2022/06/14 11:48:34;;;;;;;;;;;;;;;44.73;10.02;101254.25;4411459;32;20049;-68
2022/06/14 11:51:04;;;;;;;;;;;;;;;43.96;10.32;101242.22;4410623;32;20382;-68
2022/06/14 11:56:27;;;;;;;;;;;;;;;45.13;9.88;101248.66;3945480;32;15734563;-68
2022/06/14 12:01:56;;;;;;;;;;;;;;;44.24;10.26;101238.47;3945372;32;15722618;-69
2022/06/14 12:09:54;;;;;;;;;;;;;;;44.09;10.28;101224.34;3943533;32;15722582;-68
2022/06/14 12:12:39;;;;;;;;;;;;;;;44.09;10.28;101224.34;4424357;32;19957;-69
2022/06/14 12:17:43;;;;;;;;;;;;;;;44.99;9.81;101224.22;3946423;32;15723433;-69
2022/06/14 12:20:11;;;;;;;;;;;;;;;44.99;9.81;101224.22;4422117;32;19945;-68
2022/06/14 12:27:53;;;;;;;;;;;;;;;47.06;8.66;101216.63;3945412;32;15726479;-69
2022/06/14 12:30:19;;;;;;;;;;;;;;;47.06;8.66;101216.63;4420933;32;19985;-69
2022/06/14 12:33:01;;;;;;;;;;;;;;;46.85;8.50;101217.34;4417831;32;20038;-68
2022/06/14 12:35:30;;;;;;;;;;;;;;;45.68;9.04;101196.13;4418204;32;20429;-68
2022/06/14 12:38:01;;;;;;;;;;;;;;;45.43;9.47;101200.28;4417344;32;20107;-69
2022/06/14 12:43:13;;;;;;;;;;;;;;;46.01;9.46;101202.75;3949789;32;15737244;-67
2022/06/14 12:50:56;;;;;;;;;;;;;;;45.67;9.45;101182.72;3946334;32;15726357;-69
2022/06/14 12:56:24;;;;;;;;;;;;;;;46.95;8.34;101193.88;3949959;32;15728622;-69
2022/06/14 12:59:03;;;;;;;;;;;;;;;46.95;8.34;101193.88;4423711;32;20035;-69
2022/06/14 13:12:24;;;;;;;;;;;;;;;50.37;6.54;101196.13;3944471;32;15725256;-70
2022/06/14 13:14:57;;;;;;;;;;;;;;;50.37;6.54;101196.13;4420647;32;20211;-68
2022/06/14 13:22:43;;;;;;;;;;;;;;;47.06;8.23;101195.78;3942853;32;15723606;-70
2022/06/14 13:27:52;;;;;;;;;;;;;;;46.97;8.19;101182.03;3943317;32;15724499;-68
2022/06/14 13:30:21;;;;;;;;;;;;;;;46.97;8.19;101182.03;4422354;32;20071;-71
2022/06/14 13:35:42;;;;;;;;;;;;;;;46.90;8.30;101191.44;3945734;32;15730078;-70
2022/06/14 13:38:15;;;;;;;;;;;;;;;46.90;8.30;101191.44;4414354;32;20375;-70
2022/06/14 13:40:44;;;;;;;;;;;;;;;46.77;8.30;101186.44;4414472;32;19954;-70
2022/06/14 13:43:29;;;;;;;;;;;;;;;47.74;7.93;101197.47;4414829;32;19962;-71
2022/06/14 13:45:59;;;;;;;;;;;;;;;47.69;7.92;101186.84;4409443;32;20000;-70
2022/06/14 13:48:45;;;;;;;;;;;;;;;47.90;7.63;101186.84;4419029;32;20375;-71
2022/06/14 13:51:30;;;;;;;;;;;;;;;46.98;8.14;101176.81;4414621;32;20001;-70
2022/06/14 13:54:16;;;;;;;;;;;;;;;48.15;7.64;101177.22;4419825;32;20394;-69
2022/06/14 13:59:20;;;;;;;;;;;;;;;46.97;8.33;101172.31;3946255;32;15726392;-72
2022/06/14 14:02:05;;;;;;;;;;;;;;;46.97;8.33;101172.31;4418864;32;21003;-71
2022/06/14 14:09:51;;;;;;;;;;;;;;;47.35;8.22;101150.62;3944732;32;15734245;-70
2022/06/14 14:20:48;;;;;;;;;;;;;;;51.92;5.75;101152.66;3942882;32;15722617;-70
2022/06/14 14:23:20;;;;;;;;;;;;;;;51.92;5.75;101152.66;4416833;32;19999;-71
2022/06/14 14:25:50;;;;;;;;;;;;;;;52.57;5.53;101152.13;4419025;32;20026;-70
2022/06/14 14:28:20;;;;;;;;;;;;;;;49.62;6.68;101148.59;4416731;32;20028;-70
2022/06/14 14:30:53;;;;;;;;;;;;;;;49.73;6.68;101145.19;4415406;32;20029;-70
2022/06/14 14:35:59;;;;;;;;;;;;;;;47.49;7.83;101138.41;3938882;31;15717648;-71
2022/06/14 14:41:42;;;;;;;;;;;;;;;47.01;8.00;101122.56;3936945;32;15723562;-70
2022/06/14 14:43:55;;;;;;;;;;;;;;;47.01;8.00;101122.56;4427280;32;19967;-70
2022/06/14 14:46:23;;;;;;;;;;;;;;;47.03;8.14;101127.84;4429914;32;20616;-70
2022/06/14 14:48:55;;;;;;;;;;;;;;;47.24;7.95;101118.19;4415986;32;21380;-70
2022/06/14 14:51:25;;;;;;;;;;;;;;;46.83;8.22;101121.91;4416328;32;19958;-70
2022/06/14 14:54:02;;;;;;;;;;;;;;;45.96;8.81;101114.00;4428165;32;19965;-69
2022/06/14 14:56:32;;;;;;;;;;;;;;;44.51;9.64;101109.88;4429405;32;20605;-71
2022/06/14 14:59:02;;;;;;;;;;;;;;;44.75;9.51;101105.81;4425212;32;20406;-71
2022/06/14 15:06:50;;;;;;;;;;;;;;;52.90;5.52;101114.94;3944588;32;15727657;-71
2022/06/14 15:09:25;;;;;;;;;;;;;;;52.90;5.52;101114.94;4422290;32;19962;-71
2022/06/14 15:11:53;;;;;;;;;;;;;;;52.80;5.57;101123.09;4424396;32;19985;-71
2022/06/14 15:14:24;;;;;;;;;;;;;;;53.80;5.11;101121.06;4417603;32;20035;-71
2022/06/14 15:19:54;;;;;;;;;;;;;;;53.17;5.31;101119.75;4422672;32;21108;-71
2022/06/14 15:19:55;;;;;;;;;;;;;;;53.27;5.31;101127.38;4422527;32;19981;-70
2022/06/14 15:22:29;;;;;;;;;;;;;;;50.63;6.43;101122.53;4420994;32;20405;-70
2022/06/14 15:24:59;;;;;;;;;;;;;;;50.65;6.37;101116.62;4423877;32;19993;-70
2022/06/14 15:27:35;;;;;;;;;;;;;;;52.21;5.64;101112.59;4423181;32;20237;-70
2022/06/14 15:30:01;;;;;;;;;;;;;;;53.06;5.28;101114.38;4423380;32;20116;-71
2022/06/14 15:32:29;;;;;;;;;;;;;;;53.22;5.21;101108.50;4421472;32;20041;-69
2022/06/14 15:34:57;;;;;;;;;;;;;;;53.32;5.14;101110.88;4427745;32;20421;-71
2022/06/14 15:37:30;;;;;;;;;;;;;;;53.13;5.18;101112.94;4423573;32;19972;-71
2022/06/14 15:42:36;;;;;;;;;;;;;;;54.63;4.60;101107.97;3948332;32;15727237;-71
2022/06/14 15:45:20;;;;;;;;;;;;;;;54.63;4.60;101107.97;4417693;32;20346;-70
2022/06/14 15:47:54;;;;;;;;;;;;;;;53.89;4.88;101115.88;4417679;32;19970;-69
2022/06/14 15:50:25;;;;;;;;;;;;;;;53.40;5.04;101104.94;4419302;32;20355;-71
2022/06/14 15:52:53;;;;;;;;;;;;;;;51.15;5.88;101095.81;4417879;32;19958;-70
2022/06/14 15:55:21;;;;;;;;;;;;;;;50.12;6.39;101092.22;4419301;32;19993;-70
2022/06/14 15:57:49;;;;;;;;;;;;;;;50.42;6.31;101084.63;4416816;32;20001;-70
2022/06/14 16:02:58;;;;;;;;;;;;;;;47.53;7.74;101081.88;3957880;31;15725736;-71
2022/06/14 16:05:27;;;;;;;;;;;;;;;47.53;7.74;101081.88;4427397;32;20021;-71
2022/06/14 16:07:57;;;;;;;;;;;;;;;47.89;7.55;101080.84;4430031;32;20131;-70
2022/06/14 16:10:26;;;;;;;;;;;;;;;47.95;7.53;101074.34;4426360;32;20007;-70
2022/06/14 16:12:55;;;;;;;;;;;;;;;50.49;6.45;101074.31;4426917;32;19953;-69
2022/06/14 16:15:40;;;;;;;;;;;;;;;49.86;6.69;101071.37;4423316;32;20224;-69
2022/06/14 16:18:27;;;;;;;;;;;;;;;49.33;6.86;101074.59;4428515;32;20009;-70
2022/06/14 16:21:03;;;;;;;;;;;;;;;47.05;7.93;101072.03;4431827;32;19969;-69
2022/06/14 16:23:31;;;;;;;;;;;;;;;47.94;7.62;101064.63;4426425;32;19984;-70
2022/06/14 16:26:01;;;;;;;;;;;;;;;49.83;6.72;101060.84;4425728;32;20396;-70
2022/06/14 16:36:34;;;;;;;;;;;;;;;54.57;4.70;101068.75;3949724;32;15724959;-70
2022/06/14 16:39:14;;;;;;;;;;;;;;;54.57;4.70;101068.75;4427658;32;19965;-70
2022/06/14 16:41:45;;;;;;;;;;;;;;;52.20;5.60;101065.97;4423848;32;19961;-70
2022/06/14 16:47:08;;;;;;;;;;;;;;;46.45;8.27;101043.00;3947969;32;15724453;-70
2022/06/14 16:52:19;;;;;;;;;;;;;;;49.97;6.52;101040.25;3950125;32;15723206;-70
2022/06/14 17:00:18;;;;;;;;;;;;;;;54.10;5.09;101048.94;3949622;32;15722231;-70
2022/06/14 17:03:10;;;;;;;;;;;;;;;54.10;5.09;101048.94;4426864;32;20000;-70
2022/06/14 17:05:42;;;;;;;;;;;;;;;54.18;4.85;101051.22;4425862;32;19963;-70
2022/06/14 17:08:29;;;;;;;;;;;;;;;54.51;4.76;101049.88;4424098;32;19957;-70
2022/06/14 17:10:56;;;;;;;;;;;;;;;55.45;4.43;101046.22;4425440;32;20020;-70
2022/06/14 17:18:56;;;;;;;;;;;;;;;55.16;4.70;101048.50;3971363;31;15719102;-70
2022/06/14 17:21:30;;;;;;;;;;;;;;;55.16;4.70;101048.50;4456088;32;19960;-69
2022/06/14 17:32:21;;;;;;;;;;;;;;;54.71;4.76;101037.84;4432757;32;19972;-69
2022/06/14 17:34:49;;;;;;;;;;;;;;;54.56;4.83;101040.09;4429839;32;19945;-69
2022/06/14 17:39:56;;;;;;;;;;;;;;;53.63;5.10;101032.12;3955274;32;15730477;-70
2022/06/14 17:42:25;;;;;;;;;;;;;;;53.63;5.10;101032.12;4440255;32;20322;-70
2022/06/14 17:44:55;;;;;;;;;;;;;;;52.15;5.62;101043.41;4437151;32;19953;-69
2022/06/14 17:47:20;;;;;;;;;;;;;;;51.23;6.09;101030.00;4438833;32;19992;-69
2022/06/14 17:49:54;;;;;;;;;;;;;;;49.65;6.82;101030.50;4440012;32;20702;-69
2022/06/14 17:52:41;;;;;;;;;;;;;;;48.63;7.23;101028.59;4441906;32;20029;-69
2022/06/14 17:58:03;;;;;;;;;;;;;;;48.95;7.26;101032.47;3949954;32;15723603;-68
2022/06/14 18:00:50;;;;;;;;;;;;;;;48.95;7.26;101032.47;4433100;32;20306;-69
2022/06/14 18:03:17;;;;;;;;;;;;;;;49.47;6.93;101039.78;4426869;32;20031;-68
2022/06/14 18:05:51;;;;;;;;;;;;;;;49.30;6.94;101037.91;4430677;32;20224;-69
2022/06/14 18:13:31;;;;;;;;;;;;;;;46.73;8.37;101035.66;3933746;32;15725594;-70
2022/06/14 18:15:59;;;;;;;;;;;;;;;46.74;8.37;101032.91;4409058;32;19957;-70
2022/06/14 18:26:36;;;;;;;;;;;;;;;46.01;8.71;101036.13;3950298;32;15747563;-70
2022/06/14 18:29:08;;;;;;;;;;;;;;;46.01;8.71;101036.13;4432039;32;20012;-70
2022/06/14 18:31:39;;;;;;;;;;;;;;;45.76;8.86;101027.69;4428696;32;20333;-70
2022/06/14 18:34:18;;;;;;;;;;;;;;;46.09;8.60;101027.50;4430376;32;20004;-69
2022/06/14 18:36:54;;;;;;;;;;;;;;;45.51;8.91;101025.19;4430733;32;19969;-70
2022/06/14 18:39:22;;;;;;;;;;;;;;;45.19;9.01;101023.06;4434210;32;20092;-70
2022/06/14 18:41:47;;;;;;;;;;;;;;;43.94;9.59;101017.44;4432208;32;19985;-69
2022/06/14 18:44:14;;;;;;;;;;;;;;;42.46;10.46;101012.84;4420512;32;20292;-69
2022/06/14 18:46:42;;;;;;;;;;;;;;;41.49;11.16;101006.69;4432276;32;20019;-69
2022/06/14 18:49:28;;;;;;;;;;;;;;;40.59;11.88;101007.16;4430958;32;20026;-69
2022/06/14 18:52:11;;;;;;;;;;;;;;;41.49;11.36;101012.59;4431199;32;20012;-69
2022/06/14 18:54:58;;;;;;;;;;;;;;;42.56;10.83;101020.06;4430454;32;19972;-69
2022/06/14 18:57:27;;;;;;;;;;;;;;;43.48;10.40;101012.22;4430736;32;20475;-69
2022/06/14 18:59:53;;;;;;;;;;;;;;;44.18;9.98;101015.59;4431020;32;20090;-69
2022/06/14 19:02:30;;;;;;;;;;;;;;;43.39;10.43;101007.31;4431253;32;20005;-69
2022/06/14 19:04:56;;;;;;;;;;;;;;;44.04;10.08;101011.19;4428005;32;20007;-69
2022/06/14 19:07:43;;;;;;;;;;;;;;;44.36;9.86;101004.59;4433382;32;20299;-69
2022/06/14 19:10:17;;;;;;;;;;;;;;;44.28;9.84;101000.47;4431291;32;20388;-69